createdAt,value
2023-12-09T00:00:44.352Z,66.60
2023-12-09T00:03:29.390Z,66.45
2023-12-09T00:06:14.732Z,66.27
2023-12-09T00:08:59.947Z,66.51
2023-12-09T00:11:45.176Z,66.35
2023-12-09T00:14:30.267Z,66.13
2023-12-09T00:17:14.936Z,65.91
2023-12-09T00:19:59.773Z,66.52
2023-12-09T00:22:44.641Z,66.41
2023-12-09T00:25:29.549Z,66.25
2023-12-09T00:28:14.133Z,66.59
2023-12-09T00:30:59.134Z,66.44
2023-12-09T00:33:44.120Z,66.57
2023-12-09T00:36:29.176Z,66.44
2023-12-09T00:39:14.397Z,66.32
2023-12-09T00:41:59.594Z,66.32
2023-12-09T00:44:44.631Z,66.46
2023-12-09T00:47:29.485Z,66.43
2023-12-09T00:50:14.335Z,66.38
2023-12-09T00:52:59.382Z,66.39
2023-12-09T00:55:44.587Z,66.51
2023-12-09T00:58:30.053Z,66.78
2023-12-09T01:01:15.382Z,66.73
2023-12-09T01:04:00.989Z,66.67
2023-12-09T01:06:46.125Z,66.78
2023-12-09T01:09:31.242Z,66.55
2023-12-09T01:12:16.358Z,66.43
2023-12-09T01:15:01.029Z,66.50
2023-12-09T01:17:46.504Z,66.51
2023-12-09T01:20:31.368Z,66.97
2023-12-09T01:23:16.161Z,68.08
2023-12-09T01:26:00.881Z,68.98
2023-12-09T01:28:46.036Z,68.54
2023-12-09T01:31:30.756Z,67.56
2023-12-09T01:34:15.992Z,67.08
2023-12-09T01:37:01.183Z,67.00
2023-12-09T01:39:45.910Z,66.87
2023-12-09T01:42:31.257Z,66.69
2023-12-09T01:45:16.243Z,66.81
2023-12-09T01:48:01.084Z,66.90
2023-12-09T01:50:46.155Z,67.00
2023-12-09T01:53:31.430Z,66.44
2023-12-09T01:56:16.206Z,66.48
2023-12-09T01:59:01.070Z,66.25
2023-12-09T02:01:46.092Z,65.87
2023-12-09T02:04:31.073Z,65.88
2023-12-09T02:07:15.867Z,66.46
2023-12-09T02:10:00.652Z,66.22
2023-12-09T02:12:45.680Z,66.19
2023-12-09T02:15:30.795Z,66.54
2023-12-09T02:18:20.181Z,66.44
2023-12-09T02:21:05.361Z,66.27
2023-12-09T02:23:50.522Z,66.02
2023-12-09T02:26:41.137Z,66.07
2023-12-09T02:29:27.511Z,66.79
2023-12-09T02:32:12.885Z,68.86
2023-12-09T02:34:58.259Z,68.14
2023-12-09T02:37:43.359Z,67.22
2023-12-09T02:40:28.470Z,66.75
2023-12-09T02:43:17.372Z,66.64
2023-12-09T02:46:02.378Z,66.25
2023-12-09T02:48:47.634Z,66.17
2023-12-09T02:51:32.806Z,65.82
2023-12-09T02:54:17.993Z,65.66
2023-12-09T02:57:03.275Z,65.87
2023-12-09T02:59:48.524Z,65.82
2023-12-09T03:02:33.751Z,65.56
2023-12-09T03:05:18.646Z,65.58
2023-12-09T03:08:03.238Z,65.84
2023-12-09T03:10:48.576Z,66.46
2023-12-09T03:13:33.201Z,66.42
2023-12-09T03:16:18.191Z,65.97
2023-12-09T03:19:03.040Z,66.10
2023-12-09T03:21:48.168Z,66.09
2023-12-09T03:24:33.305Z,65.80
2023-12-09T03:27:18.398Z,65.52
2023-12-09T03:30:03.473Z,65.64
2023-12-09T03:32:48.370Z,65.46
2023-12-09T03:35:33.147Z,65.37
2023-12-09T03:38:18.125Z,65.45
2023-12-09T03:41:03.116Z,65.55
2023-12-09T03:43:47.960Z,65.51
2023-12-09T03:46:33.077Z,65.37
2023-12-09T03:49:18.069Z,65.38
2023-12-09T03:52:03.200Z,65.49
2023-12-09T03:54:47.951Z,65.47
2023-12-09T03:57:32.840Z,65.42
2023-12-09T04:00:18.061Z,66.84
2023-12-09T04:03:02.942Z,67.66
2023-12-09T04:05:48.191Z,66.45
2023-12-09T04:08:33.368Z,66.22
2023-12-09T04:11:18.380Z,66.32
2023-12-09T04:14:03.238Z,65.61
2023-12-09T04:16:47.949Z,65.40
2023-12-09T04:19:33.368Z,65.42
2023-12-09T04:22:18.513Z,66.09
2023-12-09T04:25:03.668Z,65.92
2023-12-09T04:27:48.752Z,65.74
2023-12-09T04:30:33.481Z,65.53
2023-12-09T04:33:18.463Z,65.34
2023-12-09T04:36:03.477Z,65.18
2023-12-09T04:38:48.485Z,64.82
2023-12-09T04:41:33.493Z,64.92
2023-12-09T04:44:18.417Z,64.74
2023-12-09T04:47:06.180Z,64.55
2023-12-09T04:49:52.011Z,64.80
2023-12-09T04:52:36.927Z,64.74
2023-12-09T04:55:21.936Z,64.45
2023-12-09T04:58:06.747Z,64.57
2023-12-09T05:00:51.507Z,64.89
2023-12-09T05:03:36.289Z,64.65
2023-12-09T05:06:21.143Z,64.56
2023-12-09T05:09:06.047Z,64.61
2023-12-09T05:11:50.811Z,64.75
2023-12-09T05:14:35.450Z,64.73
2023-12-09T05:17:20.287Z,64.79
2023-12-09T05:20:04.936Z,65.08
2023-12-09T05:22:49.643Z,65.14
2023-12-09T05:25:34.638Z,65.24
2023-12-09T05:28:21.393Z,65.27
2023-12-09T05:31:06.462Z,65.29
2023-12-09T05:33:51.324Z,65.54
2023-12-09T05:36:36.332Z,65.67
2023-12-09T05:39:21.638Z,65.73
2023-12-09T05:42:06.913Z,65.32
2023-12-09T05:44:52.114Z,65.28
2023-12-09T05:47:37.229Z,65.00
2023-12-09T05:50:21.977Z,64.76
2023-12-09T05:53:06.709Z,65.00
2023-12-09T05:55:51.518Z,65.05
2023-12-09T05:58:36.193Z,65.08
2023-12-09T06:01:21.337Z,64.99
2023-12-09T06:04:06.301Z,65.00
2023-12-09T06:06:51.294Z,64.60
2023-12-09T06:09:36.224Z,64.55
2023-12-09T06:12:21.564Z,64.43
2023-12-09T06:15:06.687Z,64.38
2023-12-09T06:17:51.797Z,64.40
2023-12-09T06:20:36.977Z,64.39
2023-12-09T06:23:21.949Z,64.47
2023-12-09T06:26:06.683Z,64.48
2023-12-09T06:28:51.405Z,64.58
2023-12-09T06:31:36.481Z,64.42
2023-12-09T06:34:21.512Z,64.54
2023-12-09T06:37:06.364Z,64.45
2023-12-09T06:39:51.431Z,64.42
2023-12-09T06:42:36.092Z,64.36
2023-12-09T06:45:21.306Z,64.36
2023-12-09T06:48:06.087Z,64.50
2023-12-09T06:50:50.870Z,64.11
2023-12-09T06:53:35.623Z,64.38
2023-12-09T06:56:20.672Z,64.29
2023-12-09T06:59:05.700Z,64.87
2023-12-09T07:01:50.745Z,64.59
2023-12-09T07:04:35.845Z,64.55
2023-12-09T07:07:22.446Z,64.49
2023-12-09T07:10:07.873Z,64.62
2023-12-09T07:12:52.656Z,64.30
2023-12-09T07:15:37.633Z,63.88
2023-12-09T07:18:22.355Z,64.34
2023-12-09T07:21:07.169Z,64.00
2023-12-09T07:23:52.301Z,64.04
2023-12-09T07:26:37.082Z,64.12
2023-12-09T07:29:22.145Z,63.86
2023-12-09T07:32:07.108Z,63.96
2023-12-09T07:34:53.722Z,64.02
2023-12-09T07:37:42.101Z,64.03
2023-12-09T07:40:27.639Z,63.69
2023-12-09T07:43:12.602Z,63.97
2023-12-09T07:45:57.491Z,63.88
2023-12-09T07:48:42.646Z,64.08
2023-12-09T07:51:27.590Z,64.04
2023-12-09T07:54:12.419Z,63.62
2023-12-09T07:56:57.487Z,63.64
2023-12-09T07:59:42.459Z,63.77
2023-12-09T08:02:27.807Z,63.81
2023-12-09T08:05:12.888Z,63.71
2023-12-09T08:07:57.701Z,64.18
2023-12-09T08:10:42.447Z,64.28
2023-12-09T08:13:27.149Z,63.80
2023-12-09T08:16:12.142Z,64.09
2023-12-09T08:18:57.094Z,63.97
2023-12-09T08:21:42.122Z,63.84
2023-12-09T08:24:28.233Z,63.84
2023-12-09T08:27:13.453Z,64.19
2023-12-09T08:29:58.184Z,63.98
2023-12-09T08:32:43.027Z,63.75
2023-12-09T08:35:28.367Z,64.20
2023-12-09T08:38:13.255Z,63.27
2023-12-09T08:40:58.432Z,62.08
2023-12-09T08:43:43.583Z,61.78
2023-12-09T08:46:28.336Z,61.85
2023-12-09T08:49:13.426Z,62.58
2023-12-09T08:51:58.603Z,62.67
2023-12-09T08:54:43.464Z,62.51
2023-12-09T08:57:28.289Z,63.93
2023-12-09T09:00:13.440Z,62.73
2023-12-09T09:02:58.512Z,61.21
2023-12-09T09:05:43.301Z,61.06
2023-12-09T09:08:27.931Z,60.78
2023-12-09T09:11:12.976Z,61.10
2023-12-09T09:13:57.635Z,61.46
2023-12-09T09:16:42.515Z,61.35
2023-12-09T09:19:27.693Z,61.62
2023-12-09T09:22:12.602Z,62.04
2023-12-09T09:24:57.586Z,61.69
2023-12-09T09:27:42.658Z,61.96
2023-12-09T09:30:28.026Z,60.43
2023-12-09T09:33:13.120Z,61.03
2023-12-09T09:35:58.019Z,61.33
2023-12-09T09:38:42.941Z,61.70
2023-12-09T09:41:28.118Z,61.66
2023-12-09T09:44:13.002Z,61.34
2023-12-09T09:46:57.558Z,61.09
2023-12-09T09:49:42.448Z,61.41
2023-12-09T09:52:27.525Z,61.44
2023-12-09T09:55:12.981Z,61.51
2023-12-09T09:57:57.875Z,61.47
2023-12-09T10:00:43.157Z,61.80
2023-12-09T10:03:28.182Z,61.84
2023-12-09T10:06:13.344Z,62.03
2023-12-09T10:08:58.293Z,61.79
2023-12-09T10:11:43.325Z,61.43
2023-12-09T10:14:28.159Z,61.28
2023-12-09T10:17:12.926Z,61.14
2023-12-09T10:19:57.921Z,60.20
2023-12-09T10:22:42.745Z,59.33
2023-12-09T10:25:27.645Z,59.90
2023-12-09T10:28:12.422Z,59.46
2023-12-09T10:30:57.307Z,59.77
2023-12-09T10:33:42.365Z,60.12
2023-12-09T10:36:27.097Z,60.49
2023-12-09T10:39:12.068Z,60.49
2023-12-09T10:41:56.855Z,60.93
2023-12-09T10:44:41.866Z,60.92
2023-12-09T10:47:26.613Z,61.26
2023-12-09T10:50:11.596Z,61.12
2023-12-09T10:52:56.322Z,60.35
2023-12-09T10:55:41.313Z,60.77
2023-12-09T10:58:26.465Z,60.64
2023-12-09T11:01:11.477Z,60.28
2023-12-09T11:03:56.546Z,60.02
2023-12-09T11:06:41.269Z,59.48
2023-12-09T11:09:26.292Z,58.97
2023-12-09T11:12:11.286Z,59.02
2023-12-09T11:14:56.334Z,59.65
2023-12-09T11:17:41.491Z,60.55
2023-12-09T11:20:26.671Z,58.81
2023-12-09T11:23:11.951Z,59.52
2023-12-09T11:25:56.688Z,59.34
2023-12-09T11:28:41.552Z,59.42
2023-12-09T11:31:26.424Z,59.70
2023-12-09T11:34:11.219Z,59.27
2023-12-09T11:36:56.177Z,59.13
2023-12-09T11:39:42.503Z,59.31
2023-12-09T11:42:27.481Z,59.27
2023-12-09T11:45:12.403Z,59.09
2023-12-09T11:47:58.311Z,59.57
2023-12-09T11:50:43.488Z,59.70
2023-12-09T11:53:29.913Z,59.35
2023-12-09T11:56:16.171Z,59.35
2023-12-09T11:59:00.917Z,59.78
2023-12-09T12:01:45.872Z,60.29
2023-12-09T12:04:30.957Z,60.36
2023-12-09T12:07:15.939Z,59.97
2023-12-09T12:10:01.086Z,59.93
2023-12-09T12:12:46.292Z,59.93
2023-12-09T12:15:31.543Z,59.78
2023-12-09T12:18:16.488Z,59.68
2023-12-09T12:21:01.600Z,59.64
2023-12-09T12:23:46.261Z,59.87
2023-12-09T12:26:32.568Z,60.60
2023-12-09T12:29:17.514Z,60.47
2023-12-09T12:32:02.246Z,60.53
2023-12-09T12:34:47.382Z,60.57
2023-12-09T12:37:32.208Z,60.82
2023-12-09T12:40:16.975Z,60.85
2023-12-09T12:43:01.720Z,60.55
2023-12-09T12:45:46.478Z,60.79
2023-12-09T12:48:31.401Z,60.46
2023-12-09T12:51:16.349Z,60.86
2023-12-09T12:54:01.058Z,61.06
2023-12-09T12:56:46.011Z,61.11
2023-12-09T12:59:30.820Z,60.78
2023-12-09T13:02:16.126Z,60.57
2023-12-09T13:05:00.878Z,61.27
2023-12-09T13:07:45.962Z,61.10
2023-12-09T13:10:30.726Z,61.48
2023-12-09T13:13:15.662Z,61.73
2023-12-09T13:16:00.640Z,61.95
2023-12-09T13:18:45.741Z,62.41
2023-12-09T13:21:30.891Z,62.66
2023-12-09T13:24:15.782Z,62.83
2023-12-09T13:27:00.385Z,62.52
2023-12-09T13:29:45.863Z,62.75
2023-12-09T13:32:30.857Z,62.87
2023-12-09T13:35:16.341Z,62.77
2023-12-09T13:38:03.504Z,62.84
2023-12-09T13:40:48.790Z,63.30
2023-12-09T13:43:33.943Z,63.75
2023-12-09T13:46:18.702Z,63.08
2023-12-09T13:49:03.954Z,63.23
2023-12-09T13:51:49.077Z,63.51
2023-12-09T13:54:33.809Z,63.81
2023-12-09T13:57:18.789Z,63.65
2023-12-09T14:00:03.673Z,63.52
2023-12-09T14:02:48.561Z,63.57
2023-12-09T14:05:33.493Z,63.40
2023-12-09T14:08:18.543Z,63.64
2023-12-09T14:11:03.555Z,65.19
2023-12-09T14:13:48.645Z,65.30
2023-12-09T14:16:33.474Z,64.74
2023-12-09T14:19:18.370Z,66.09
2023-12-09T14:22:03.395Z,65.50
2023-12-09T14:24:48.265Z,66.31
2023-12-09T14:27:33.163Z,66.84
2023-12-09T14:30:18.384Z,67.87
2023-12-09T14:33:03.819Z,66.96
2023-12-09T14:35:58.009Z,65.84
2023-12-09T14:38:43.065Z,65.84
2023-12-09T14:41:28.188Z,65.43
2023-12-09T14:44:13.674Z,66.19
2023-12-09T14:46:58.294Z,66.56
2023-12-09T14:49:43.348Z,65.42
2023-12-09T14:52:28.721Z,64.78
2023-12-09T14:55:13.483Z,64.74
2023-12-09T14:57:58.477Z,64.69
2023-12-09T15:00:43.234Z,64.44
2023-12-09T15:03:28.684Z,64.50
2023-12-09T15:06:13.433Z,64.54
2023-12-09T15:08:58.970Z,64.50
2023-12-09T15:11:43.607Z,64.31
2023-12-09T15:14:28.690Z,64.40
2023-12-09T15:17:13.436Z,64.35
2023-12-09T15:19:58.125Z,64.16
2023-12-09T15:22:42.942Z,64.52
2023-12-09T15:25:27.894Z,64.31
2023-12-09T15:28:13.040Z,64.79
2023-12-09T15:31:04.125Z,64.59
2023-12-09T15:33:49.388Z,64.46
2023-12-09T15:36:34.549Z,64.77
2023-12-09T15:39:19.237Z,64.86
2023-12-09T15:42:04.341Z,64.94
2023-12-09T15:44:49.131Z,64.89
2023-12-09T15:47:34.055Z,65.53
2023-12-09T15:50:18.977Z,65.60
2023-12-09T15:53:03.696Z,65.22
2023-12-09T15:55:48.887Z,65.31
2023-12-09T15:58:33.808Z,65.36
2023-12-09T16:01:18.852Z,65.69
2023-12-09T16:04:04.007Z,65.56
2023-12-09T16:06:48.727Z,65.77
2023-12-09T16:09:36.330Z,65.59
2023-12-09T16:12:23.491Z,65.41
2023-12-09T16:15:08.601Z,65.68
2023-12-09T16:17:53.732Z,65.83
2023-12-09T16:20:38.629Z,65.59
2023-12-09T16:23:23.573Z,65.61
2023-12-09T16:26:08.951Z,66.17
2023-12-09T16:28:53.611Z,66.24
2023-12-09T16:31:38.501Z,66.72
2023-12-09T16:34:23.287Z,66.60
2023-12-09T16:37:08.935Z,67.40
2023-12-09T16:39:53.926Z,67.01
2023-12-09T16:42:38.940Z,66.43
2023-12-09T16:45:23.739Z,66.32
2023-12-09T16:48:08.951Z,66.08
2023-12-09T16:50:54.072Z,66.18
2023-12-09T16:53:39.184Z,66.16
2023-12-09T16:56:23.818Z,66.10
2023-12-09T16:59:10.822Z,66.21
2023-12-09T17:01:55.752Z,66.15
2023-12-09T17:04:40.813Z,66.47
2023-12-09T17:07:25.978Z,66.49
2023-12-09T17:10:11.845Z,66.59
2023-12-09T17:12:56.929Z,66.67
2023-12-09T17:15:41.634Z,66.81
2023-12-09T17:18:26.971Z,68.73
2023-12-09T17:21:12.031Z,68.11
2023-12-09T17:23:56.927Z,67.54
2023-12-09T17:26:42.113Z,67.81
2023-12-09T17:29:26.778Z,67.41
2023-12-09T17:32:11.524Z,67.48
2023-12-09T17:34:56.149Z,67.25
2023-12-09T17:37:41.317Z,67.14
2023-12-09T17:40:26.295Z,67.17
2023-12-09T17:43:11.368Z,66.95
2023-12-09T17:45:56.596Z,66.65
2023-12-09T17:48:41.827Z,67.61
2023-12-09T17:51:27.184Z,66.87
2023-12-09T17:54:12.143Z,66.65
2023-12-09T17:56:57.104Z,66.80
2023-12-09T17:59:42.040Z,67.17
2023-12-09T18:02:27.386Z,67.14
2023-12-09T18:05:12.653Z,67.33
2023-12-09T18:07:57.554Z,67.52
2023-12-09T18:10:42.445Z,67.09
2023-12-09T18:13:27.086Z,66.75
2023-12-09T18:16:12.088Z,66.88
2023-12-09T18:18:57.255Z,66.66
2023-12-09T18:21:42.096Z,66.72
2023-12-09T18:24:26.942Z,66.83
2023-12-09T18:27:12.158Z,66.60
2023-12-09T18:29:57.036Z,66.64
2023-12-09T18:32:42.149Z,66.78
2023-12-09T18:35:27.171Z,66.99
2023-12-09T18:38:12.102Z,66.95
2023-12-09T18:40:57.095Z,67.44
2023-12-09T18:43:41.770Z,69.10
2023-12-09T18:46:26.725Z,69.28
2023-12-09T18:49:11.558Z,69.11
2023-12-09T18:51:56.577Z,69.46
2023-12-09T18:54:41.477Z,68.53
2023-12-09T18:57:26.919Z,70.32
2023-12-09T19:00:11.807Z,68.87
2023-12-09T19:02:56.638Z,68.42
2023-12-09T19:05:41.651Z,68.10
2023-12-09T19:08:27.498Z,68.10
2023-12-09T19:11:12.550Z,68.07
2023-12-09T19:13:57.549Z,67.83
2023-12-09T19:16:42.236Z,67.72
2023-12-09T19:19:27.921Z,67.75
2023-12-09T19:22:12.660Z,67.51
2023-12-09T19:24:57.684Z,68.09
2023-12-09T19:27:42.722Z,68.65
2023-12-09T19:30:27.500Z,68.25
2023-12-09T19:33:12.540Z,67.68
2023-12-09T19:35:57.665Z,68.61
2023-12-09T19:38:42.839Z,67.42
2023-12-09T19:41:27.693Z,67.53
2023-12-09T19:44:12.595Z,67.83
2023-12-09T19:46:57.439Z,68.72
2023-12-09T19:49:42.324Z,68.72
2023-12-09T19:52:27.642Z,68.12
2023-12-09T19:55:12.858Z,68.22
2023-12-09T19:57:57.795Z,69.11
2023-12-09T20:00:44.798Z,68.62
2023-12-09T20:03:30.496Z,69.00
2023-12-09T20:06:15.270Z,69.01
2023-12-09T20:09:00.363Z,68.74
2023-12-09T20:11:45.433Z,70.56
2023-12-09T20:14:30.370Z,69.60
2023-12-09T20:17:15.371Z,69.18
2023-12-09T20:20:00.471Z,69.11
2023-12-09T20:22:45.264Z,68.67
2023-12-09T20:25:29.867Z,68.16
2023-12-09T20:28:14.956Z,68.52
2023-12-09T20:30:59.995Z,69.08
2023-12-09T20:33:45.069Z,69.24
2023-12-09T20:36:30.107Z,69.98
2023-12-09T20:39:15.150Z,69.31
2023-12-09T20:42:00.261Z,71.09
2023-12-09T20:44:45.236Z,70.24
2023-12-09T20:47:30.384Z,70.64
2023-12-09T20:50:15.429Z,69.90
2023-12-09T20:53:00.397Z,72.32
2023-12-09T20:55:46.336Z,71.93
2023-12-09T20:58:31.380Z,71.65
2023-12-09T21:01:16.702Z,71.52
2023-12-09T21:04:01.681Z,70.85
2023-12-09T21:06:46.824Z,70.08
2023-12-09T21:09:31.822Z,70.36
2023-12-09T21:12:16.883Z,71.12
2023-12-09T21:15:01.803Z,72.42
2023-12-09T21:17:46.788Z,70.68
2023-12-09T21:20:31.706Z,70.29
2023-12-09T21:23:16.698Z,70.24
2023-12-09T21:26:01.702Z,69.74
2023-12-09T21:28:46.741Z,70.95
2023-12-09T21:31:31.716Z,70.62
2023-12-09T21:34:18.348Z,71.86
2023-12-09T21:37:03.750Z,70.96
2023-12-09T21:39:48.399Z,72.71
2023-12-09T21:42:33.383Z,70.68
2023-12-09T21:45:18.213Z,69.82
2023-12-09T21:48:03.306Z,69.27
2023-12-09T21:50:48.354Z,69.43
2023-12-09T21:53:33.299Z,69.81
2023-12-09T21:56:18.556Z,69.42
2023-12-09T21:59:03.750Z,69.77
2023-12-09T22:01:51.296Z,70.11
2023-12-09T22:04:36.556Z,70.02
2023-12-09T22:07:21.499Z,70.20
2023-12-09T22:10:06.406Z,69.81
2023-12-09T22:12:51.468Z,69.48
2023-12-09T22:15:36.176Z,69.27
2023-12-09T22:18:21.350Z,69.08
2023-12-09T22:21:06.105Z,69.19
2023-12-09T22:23:51.154Z,69.52
2023-12-09T22:26:35.855Z,70.73
2023-12-09T22:29:20.799Z,69.96
2023-12-09T22:32:05.500Z,70.40
2023-12-09T22:34:50.350Z,72.30
2023-12-09T22:37:35.147Z,72.22
2023-12-09T22:40:20.209Z,74.63
2023-12-09T22:43:05.024Z,72.36
2023-12-09T22:45:50.220Z,71.26
2023-12-09T22:48:35.771Z,71.15
2023-12-09T22:51:20.701Z,71.69
2023-12-09T22:54:05.672Z,73.17
2023-12-09T22:56:50.513Z,74.20
2023-12-09T22:59:35.453Z,73.29
2023-12-09T23:02:20.173Z,71.12
2023-12-09T23:05:05.189Z,69.89
2023-12-09T23:07:50.009Z,69.61
2023-12-09T23:10:35.023Z,68.79
2023-12-09T23:13:20.100Z,68.65
2023-12-09T23:16:04.834Z,69.56
2023-12-09T23:18:49.990Z,71.91
2023-12-09T23:21:35.395Z,71.37
2023-12-09T23:24:20.601Z,70.90
2023-12-09T23:27:05.788Z,71.16
2023-12-09T23:29:51.123Z,70.49
2023-12-09T23:32:36.666Z,70.18
2023-12-09T23:35:23.361Z,70.42
2023-12-09T23:38:08.154Z,71.37
2023-12-09T23:40:52.929Z,71.14
2023-12-09T23:43:37.928Z,72.73
2023-12-09T23:46:22.506Z,73.41
2023-12-09T23:49:07.525Z,72.56
2023-12-09T23:51:52.688Z,71.95
2023-12-09T23:54:37.598Z,70.86
2023-12-09T23:57:22.660Z,69.95
